createdAt,value
2022-10-29T00:00:09.097Z,3.85
2022-10-29T00:02:37.076Z,4.40
2022-10-29T00:05:05.242Z,4.35
2022-10-29T00:07:33.154Z,4.07
2022-10-29T00:10:01.175Z,3.80
2022-10-29T00:12:30.518Z,4.07
2022-10-29T00:14:58.383Z,3.85
2022-10-29T00:17:26.453Z,4.38
2022-10-29T00:19:54.518Z,4.75
2022-10-29T00:22:22.751Z,4.85
2022-10-29T00:24:50.613Z,4.70
2022-10-29T00:27:18.632Z,4.63
2022-10-29T00:29:47.925Z,3.90
2022-10-29T00:32:15.891Z,4.22
2022-10-29T00:34:43.864Z,4.35
2022-10-29T00:37:11.934Z,4.72
2022-10-29T00:39:39.961Z,4.50
2022-10-29T00:42:07.972Z,3.83
2022-10-29T00:44:36.294Z,3.47
2022-10-29T00:47:13.264Z,3.80
2022-10-29T00:49:42.059Z,4.40
2022-10-29T00:52:10.794Z,4.60
2022-10-29T00:54:41.421Z,4.30
2022-10-29T00:57:11.032Z,3.42
2022-10-29T00:59:38.981Z,4.00
2022-10-29T01:02:08.603Z,4.15
2022-10-29T01:04:37.460Z,4.82
2022-10-29T01:07:06.086Z,4.25
2022-10-29T01:09:33.998Z,4.78
2022-10-29T01:12:08.470Z,3.97
2022-10-29T01:14:44.423Z,4.45
2022-10-29T01:17:18.684Z,5.28
2022-10-29T01:20:06.469Z,4.45
2022-10-29T01:22:36.540Z,3.80
2022-10-29T01:25:18.644Z,3.47
2022-10-29T01:27:59.253Z,4.13
2022-10-29T01:30:46.023Z,4.15
2022-10-29T01:33:18.372Z,4.35
2022-10-29T01:35:50.799Z,3.70
2022-10-29T01:38:23.428Z,4.70
2022-10-29T01:40:54.763Z,4.20
2022-10-29T01:43:26.422Z,4.47
2022-10-29T01:45:57.081Z,4.00
2022-10-29T01:48:32.145Z,4.30
2022-10-29T01:51:03.794Z,4.40
2022-10-29T01:53:32.529Z,4.88
2022-10-29T01:56:00.120Z,5.05
2022-10-29T01:58:28.054Z,4.50
2022-10-29T02:00:59.908Z,3.60
2022-10-29T02:03:32.961Z,4.22
2022-10-29T02:06:05.833Z,4.68
2022-10-29T02:08:37.845Z,4.38
2022-10-29T02:11:09.498Z,3.90
2022-10-29T02:13:41.600Z,3.83
2022-10-29T02:16:10.581Z,3.88
2022-10-29T02:18:44.052Z,4.38
2022-10-29T02:21:12.738Z,4.07
2022-10-29T02:23:40.587Z,4.60
2022-10-29T02:26:08.598Z,4.15
2022-10-29T02:28:36.535Z,3.83
2022-10-29T02:31:04.401Z,3.97
2022-10-29T02:33:32.321Z,4.07
2022-10-29T02:36:01.655Z,4.55
2022-10-29T02:38:29.522Z,4.10
2022-10-29T02:40:57.395Z,4.15
2022-10-29T02:43:25.414Z,3.92
2022-10-29T02:46:08.278Z,4.10
2022-10-29T02:48:36.252Z,4.18
2022-10-29T02:51:05.605Z,4.32
2022-10-29T02:53:33.415Z,4.35
2022-10-29T02:56:01.485Z,4.03
2022-10-29T02:58:29.518Z,3.63
2022-10-29T03:00:57.313Z,4.22
2022-10-29T03:03:25.694Z,4.40
2022-10-29T03:05:53.573Z,4.00
2022-10-29T03:08:22.956Z,4.03
2022-10-29T03:10:50.924Z,3.88
2022-10-29T03:13:19.259Z,3.83
2022-10-29T03:15:47.378Z,4.03
2022-10-29T03:18:15.446Z,3.92
2022-10-29T03:20:45.419Z,4.13
2022-10-29T03:23:13.496Z,3.97
2022-10-29T03:25:42.783Z,3.58
2022-10-29T03:28:10.659Z,3.92
2022-10-29T03:30:38.517Z,3.97
2022-10-29T03:33:06.422Z,3.67
2022-10-29T03:35:34.337Z,3.60
2022-10-29T03:38:02.362Z,4.10
2022-10-29T03:40:30.323Z,3.83
2022-10-29T03:42:59.785Z,4.20
2022-10-29T03:45:28.368Z,3.97
2022-10-29T03:47:57.573Z,3.42
2022-10-29T03:50:25.783Z,3.78
2022-10-29T03:52:53.595Z,3.47
2022-10-29T03:55:21.464Z,3.50
2022-10-29T03:57:49.234Z,3.90
2022-10-29T04:00:18.732Z,3.92
2022-10-29T04:02:46.718Z,3.47
2022-10-29T04:05:14.462Z,3.60
2022-10-29T04:07:42.254Z,3.80
2022-10-29T04:10:10.392Z,3.97
2022-10-29T04:12:38.309Z,4.05
2022-10-29T04:15:06.746Z,3.50
2022-10-29T04:17:35.991Z,3.60
2022-10-29T04:20:09.945Z,4.18
2022-10-29T04:26:48.083Z,3.97
2022-10-29T04:28:43.995Z,4.07
2022-10-29T04:31:12.883Z,3.20
2022-10-29T04:33:42.332Z,2.92
2022-10-29T04:36:10.758Z,3.63
2022-10-29T04:38:38.676Z,3.75
2022-10-29T04:41:06.544Z,3.58
2022-10-29T04:43:34.458Z,3.38
2022-10-29T04:46:02.833Z,4.00
2022-10-29T04:48:30.807Z,3.45
2022-10-29T04:51:00.107Z,3.70
2022-10-29T04:53:28.169Z,4.35
2022-10-29T04:56:00.435Z,4.32
2022-10-29T04:58:28.407Z,3.88
2022-10-29T05:01:01.986Z,4.30
2022-10-29T05:03:30.236Z,4.10
2022-10-29T05:05:58.200Z,4.05
2022-10-29T05:08:27.593Z,4.28
2022-10-29T05:10:55.458Z,4.25
2022-10-29T05:13:23.425Z,4.07
2022-10-29T05:15:53.182Z,4.45
2022-10-29T05:18:21.778Z,3.60
2022-10-29T05:20:49.946Z,3.72
2022-10-29T05:23:18.229Z,4.38
2022-10-29T05:25:49.315Z,4.07
2022-10-29T05:28:19.305Z,4.35
2022-10-29T05:30:47.574Z,4.32
2022-10-29T05:33:16.132Z,3.97
2022-10-29T05:35:44.044Z,4.65
2022-10-29T05:38:12.568Z,4.13
2022-10-29T05:40:41.309Z,4.88
2022-10-29T05:43:10.722Z,4.72
2022-10-29T05:45:38.680Z,4.93
2022-10-29T05:48:06.866Z,4.28
2022-10-29T05:50:35.177Z,4.90
2022-10-29T05:53:04.271Z,4.47
2022-10-29T05:55:33.003Z,4.82
2022-10-29T05:58:01.598Z,4.75
2022-10-29T06:00:31.451Z,4.68
2022-10-29T06:02:59.882Z,4.85
2022-10-29T06:05:28.163Z,4.60
2022-10-29T06:07:57.099Z,4.78
2022-10-29T06:10:26.041Z,4.40
2022-10-29T06:12:54.277Z,4.85
2022-10-29T06:15:22.745Z,4.80
2022-10-29T06:17:51.915Z,5.55
2022-10-29T06:20:20.933Z,5.05
2022-10-29T06:22:49.001Z,4.82
2022-10-29T06:25:17.023Z,4.32
2022-10-29T06:27:45.052Z,4.75
2022-10-29T06:30:13.675Z,3.92
2022-10-29T06:32:41.532Z,4.93
2022-10-29T06:35:11.455Z,5.03
2022-10-29T06:37:39.409Z,4.40
2022-10-29T06:40:07.899Z,4.40
2022-10-29T06:42:35.715Z,4.03
2022-10-29T06:45:03.589Z,3.95
2022-10-29T06:47:31.544Z,4.10
2022-10-29T06:49:59.411Z,4.82
2022-10-29T06:52:28.707Z,4.90
2022-10-29T06:54:56.732Z,4.75
2022-10-29T06:57:24.900Z,4.88
2022-10-29T06:59:52.774Z,4.47
2022-10-29T07:02:21.489Z,2.42
2022-10-29T07:04:49.326Z,3.20
2022-10-29T07:07:17.664Z,2.38
2022-10-29T07:09:46.934Z,2.60
2022-10-29T07:12:14.701Z,2.10
2022-10-29T07:14:42.542Z,1.98
2022-10-29T07:17:10.369Z,1.58
2022-10-29T07:19:38.244Z,3.13
2022-10-29T07:22:06.051Z,1.63
2022-10-29T07:24:33.878Z,1.98
2022-10-29T07:27:03.821Z,2.92
2022-10-29T07:29:31.676Z,1.13
2022-10-29T07:31:59.569Z,2.30
2022-10-29T07:34:27.433Z,1.70
2022-10-29T07:36:55.298Z,1.83
2022-10-29T07:39:23.388Z,2.55
2022-10-29T07:41:52.188Z,0.82
2022-10-29T07:44:23.450Z,1.10
2022-10-29T07:46:51.420Z,0.80
2022-10-29T07:49:19.294Z,2.53
2022-10-29T07:51:47.046Z,1.63
2022-10-29T07:54:15.008Z,3.08
2022-10-29T07:56:46.718Z,3.50
2022-10-29T07:59:17.810Z,2.88
2022-10-29T08:01:47.123Z,2.15
2022-10-29T08:04:14.999Z,2.97
2022-10-29T08:06:43.054Z,2.58
2022-10-29T08:09:11.830Z,3.63
2022-10-29T08:11:40.001Z,2.38
2022-10-29T08:14:07.779Z,0.93
2022-10-29T08:16:35.731Z,1.58
2022-10-29T08:19:05.075Z,1.90
2022-10-29T08:21:33.041Z,1.35
2022-10-29T08:24:00.965Z,3.20
2022-10-29T08:26:28.779Z,1.85
2022-10-29T08:28:56.474Z,1.42
2022-10-29T08:31:24.207Z,2.85
2022-10-29T08:33:52.017Z,2.88
2022-10-29T08:36:21.216Z,1.02
2022-10-29T08:38:49.115Z,2.88
2022-10-29T08:41:24.065Z,2.55
2022-10-29T08:44:14.407Z,4.13
2022-10-29T08:46:45.442Z,2.72
2022-10-29T08:49:15.620Z,2.95
2022-10-29T08:51:49.031Z,2.05
2022-10-29T08:54:30.142Z,1.70
2022-10-29T08:56:59.943Z,2.17
2022-10-29T08:59:30.563Z,0.98
2022-10-29T09:01:58.640Z,3.78
2022-10-29T09:04:27.989Z,2.42
2022-10-29T09:07:07.626Z,1.45
2022-10-29T09:09:39.084Z,2.13
2022-10-29T09:12:14.884Z,1.02
2022-10-29T09:14:53.809Z,2.55
2022-10-29T09:17:26.421Z,1.27
2022-10-29T09:20:03.722Z,1.23
2022-10-29T09:22:38.277Z,0.98
2022-10-29T09:25:12.731Z,1.35
2022-10-29T09:27:46.516Z,1.08
2022-10-29T09:30:15.923Z,1.58
2022-10-29T09:32:45.648Z,1.98
2022-10-29T09:35:15.575Z,1.80
2022-10-29T09:37:46.735Z,2.22
2022-10-29T09:40:17.377Z,2.83
2022-10-29T09:42:46.152Z,2.88
2022-10-29T09:45:15.968Z,2.05
2022-10-29T09:47:47.301Z,1.33
2022-10-29T09:50:18.246Z,1.88
2022-10-29T09:52:47.698Z,2.03
2022-10-29T09:55:18.078Z,1.20
2022-10-29T09:57:46.929Z,1.75
2022-10-29T10:00:18.516Z,2.05
2022-10-29T10:02:49.701Z,1.67
2022-10-29T10:05:20.999Z,2.72
2022-10-29T10:08:06.385Z,2.17
2022-10-29T10:10:34.763Z,1.83
2022-10-29T10:13:03.517Z,2.13
2022-10-29T10:15:32.264Z,1.20
2022-10-29T10:18:01.652Z,2.75
2022-10-29T10:20:34.222Z,1.40
2022-10-29T10:23:04.454Z,2.50
2022-10-29T10:25:33.638Z,1.60
2022-10-29T10:28:04.673Z,1.95
2022-10-29T10:30:32.476Z,2.17
2022-10-29T10:33:13.429Z,2.10
2022-10-29T10:35:41.503Z,1.90
2022-10-29T10:38:11.847Z,1.73
2022-10-29T10:40:39.702Z,2.75
2022-10-29T10:43:09.117Z,2.30
2022-10-29T10:45:37.975Z,2.75
2022-10-29T10:48:09.495Z,1.02
2022-10-29T10:50:37.962Z,2.50
2022-10-29T10:53:07.065Z,1.67
2022-10-29T10:55:38.783Z,2.13
2022-10-29T10:58:23.367Z,2.92
2022-10-29T11:00:55.241Z,2.72
2022-10-29T11:03:27.104Z,2.10
2022-10-29T11:05:58.647Z,0.63
2022-10-29T11:08:29.891Z,0.93
2022-10-29T11:11:02.082Z,2.30
2022-10-29T11:13:30.792Z,2.45
2022-10-29T11:15:59.459Z,2.30
2022-10-29T11:18:31.439Z,2.85
2022-10-29T11:21:06.421Z,2.20
2022-10-29T11:23:41.248Z,1.40
2022-10-29T11:26:12.844Z,2.35
2022-10-29T11:28:42.356Z,2.53
2022-10-29T11:31:13.026Z,2.38
2022-10-29T11:33:44.694Z,2.33
2022-10-29T11:36:15.893Z,2.17
2022-10-29T11:38:46.329Z,2.80
2022-10-29T11:41:21.320Z,2.75
2022-10-29T11:43:49.207Z,1.98
2022-10-29T11:46:22.690Z,2.05
2022-10-29T11:48:54.158Z,2.47
2022-10-29T11:51:26.847Z,1.60
2022-10-29T11:53:57.566Z,2.38
2022-10-29T11:56:33.952Z,2.25
2022-10-29T11:59:04.737Z,2.63
2022-10-29T12:01:35.708Z,1.83
2022-10-29T12:04:21.313Z,2.55
2022-10-29T12:06:57.236Z,1.88
2022-10-29T12:09:40.133Z,2.15
2022-10-29T12:12:14.259Z,2.60
2022-10-29T12:14:44.124Z,1.02
2022-10-29T12:17:14.243Z,1.77
2022-10-29T12:19:46.456Z,1.73
2022-10-29T12:22:22.635Z,2.35
2022-10-29T12:24:54.635Z,1.75
2022-10-29T12:27:26.443Z,2.67
2022-10-29T12:29:57.585Z,2.65
2022-10-29T12:32:29.548Z,2.30
2022-10-29T12:35:03.144Z,2.75
2022-10-29T12:37:37.728Z,2.42
2022-10-29T12:40:10.580Z,2.58
2022-10-29T12:42:41.721Z,3.20
2022-10-29T12:45:17.489Z,2.53
2022-10-29T12:47:49.200Z,3.47
2022-10-29T12:50:24.886Z,3.85
2022-10-29T12:52:57.365Z,3.78
2022-10-29T12:55:25.585Z,3.30
2022-10-29T12:57:54.650Z,3.00
2022-10-29T13:00:45.628Z,3.03
2022-10-29T13:03:13.554Z,3.20
2022-10-29T13:05:42.911Z,3.88
2022-10-29T13:08:35.246Z,3.75
2022-10-29T13:11:03.256Z,3.17
2022-10-29T13:13:40.748Z,2.80
2022-10-29T13:16:14.357Z,5.10
2022-10-29T13:18:48.517Z,5.50
2022-10-29T13:21:31.285Z,3.03
2022-10-29T13:24:04.075Z,4.03
2022-10-29T13:26:46.677Z,3.10
2022-10-29T13:29:36.015Z,3.03
2022-10-29T13:32:04.973Z,2.95
2022-10-29T13:34:51.809Z,3.20
2022-10-29T13:37:37.065Z,2.92
2022-10-29T13:40:23.506Z,3.20
2022-10-29T13:42:57.165Z,2.95
2022-10-29T13:45:26.917Z,2.92
2022-10-29T13:48:03.486Z,3.60
2022-10-29T13:50:31.670Z,4.03
2022-10-29T13:53:00.381Z,2.97
2022-10-29T13:55:30.933Z,2.97
2022-10-29T13:58:01.715Z,3.67
2022-10-29T14:00:31.428Z,3.17
2022-10-29T14:03:01.445Z,2.97
2022-10-29T14:05:31.291Z,2.22
2022-10-29T14:08:01.256Z,2.70
2022-10-29T14:13:09.245Z,2.85
2022-10-29T14:15:39.186Z,3.00
2022-10-29T14:18:19.716Z,2.78
2022-10-29T14:20:55.151Z,3.75
2022-10-29T14:23:22.875Z,3.17
2022-10-29T14:25:51.811Z,3.30
2022-10-29T14:28:20.858Z,2.97
2022-10-29T14:30:59.312Z,3.45
2022-10-29T14:33:28.305Z,3.28
2022-10-29T14:35:57.906Z,3.83
2022-10-29T14:38:31.157Z,4.05
2022-10-29T14:40:59.117Z,3.90
2022-10-29T14:43:28.727Z,4.25
2022-10-29T14:46:09.705Z,5.35
2022-10-29T14:48:38.330Z,5.25
2022-10-29T14:51:06.788Z,6.25
2022-10-29T14:53:35.672Z,6.32
2022-10-29T14:56:08.338Z,5.60
2022-10-29T14:58:36.922Z,5.57
2022-10-29T15:01:10.060Z,5.07
2022-10-29T15:03:38.235Z,3.63
2022-10-29T15:06:11.970Z,3.67
2022-10-29T15:08:40.440Z,3.58
2022-10-29T15:11:32.133Z,3.53
2022-10-29T15:13:59.988Z,2.83
2022-10-29T15:16:29.544Z,3.33
2022-10-29T15:18:57.811Z,3.65
2022-10-29T15:21:26.682Z,3.38
2022-10-29T15:23:56.824Z,3.63
2022-10-29T15:26:24.792Z,3.00
2022-10-29T15:28:54.098Z,2.90
2022-10-29T15:31:23.442Z,3.50
2022-10-29T15:33:53.510Z,3.20
2022-10-29T15:36:21.572Z,3.53
2022-10-29T15:39:04.795Z,3.65
2022-10-29T15:41:37.432Z,3.30
2022-10-29T15:44:24.595Z,3.10
2022-10-29T15:46:59.431Z,2.85
2022-10-29T15:49:32.411Z,2.97
2022-10-29T15:52:01.545Z,3.40
2022-10-29T15:54:29.679Z,2.97
2022-10-29T15:56:57.599Z,3.00
2022-10-29T15:59:26.746Z,2.80
2022-10-29T16:01:54.926Z,3.75
2022-10-29T16:04:22.936Z,3.22
2022-10-29T16:06:52.280Z,3.22
2022-10-29T16:09:21.579Z,3.65
2022-10-29T16:11:50.761Z,3.10
2022-10-29T16:14:18.692Z,3.55
2022-10-29T16:16:46.512Z,3.00
2022-10-29T16:19:14.370Z,3.05
2022-10-29T16:21:42.337Z,3.00
2022-10-29T16:24:14.336Z,3.97
2022-10-29T16:26:42.215Z,3.90
2022-10-29T16:29:09.945Z,4.53
2022-10-29T16:31:37.902Z,3.28
2022-10-29T16:34:06.537Z,3.28
2022-10-29T16:36:34.447Z,3.30
2022-10-29T16:39:02.267Z,3.00
2022-10-29T16:41:31.969Z,3.80
2022-10-29T16:43:59.921Z,2.92
2022-10-29T16:46:27.858Z,3.45
2022-10-29T16:48:55.648Z,3.17
2022-10-29T16:51:23.419Z,3.47
2022-10-29T16:53:52.883Z,3.10
2022-10-29T16:56:20.662Z,3.78
2022-10-29T16:58:49.878Z,2.97
2022-10-29T17:01:18.329Z,3.28
2022-10-29T17:03:46.506Z,3.58
2022-10-29T17:06:14.216Z,3.35
2022-10-29T17:08:42.047Z,3.17
2022-10-29T17:11:10.278Z,3.47
2022-10-29T17:13:38.167Z,3.55
2022-10-29T17:16:11.196Z,2.92
2022-10-29T17:18:39.011Z,4.30
2022-10-29T17:21:07.019Z,3.50
2022-10-29T17:23:34.949Z,4.05
2022-10-29T17:26:02.707Z,3.08
2022-10-29T17:28:30.572Z,3.70
2022-10-29T17:30:58.427Z,3.40
2022-10-29T17:33:27.583Z,3.67
2022-10-29T17:36:01.840Z,3.58
2022-10-29T17:38:29.561Z,3.55
2022-10-29T17:40:57.358Z,3.88
2022-10-29T17:43:25.094Z,3.65
2022-10-29T17:45:52.866Z,3.72
2022-10-29T17:48:24.043Z,3.75
2022-10-29T17:50:55.046Z,4.10
2022-10-29T17:53:23.077Z,3.83
2022-10-29T17:55:51.234Z,3.88
2022-10-29T17:58:19.140Z,3.78
2022-10-29T18:00:48.390Z,3.60
2022-10-29T18:03:16.543Z,3.60
2022-10-29T18:05:44.568Z,4.25
2022-10-29T18:08:13.876Z,4.15
2022-10-29T18:10:41.639Z,4.28
2022-10-29T18:13:09.524Z,4.45
2022-10-29T18:15:37.393Z,4.13
2022-10-29T18:18:05.337Z,3.90
2022-10-29T18:20:33.128Z,4.57
2022-10-29T18:23:01.251Z,4.43
2022-10-29T18:25:30.601Z,4.43
2022-10-29T18:27:58.309Z,4.10
2022-10-29T18:30:26.098Z,4.80
2022-10-29T18:32:54.053Z,4.72
2022-10-29T18:35:21.871Z,4.53
2022-10-29T18:37:49.590Z,3.92
2022-10-29T18:40:17.455Z,4.57
2022-10-29T18:42:46.551Z,4.40
2022-10-29T18:45:14.405Z,5.18
2022-10-29T18:47:42.180Z,4.72
2022-10-29T18:50:10.222Z,4.65
2022-10-29T18:52:37.974Z,5.38
2022-10-29T18:55:06.172Z,4.30
2022-10-29T18:57:34.629Z,4.07
2022-10-29T19:00:04.621Z,4.65
2022-10-29T19:02:32.484Z,3.67
2022-10-29T19:05:00.275Z,4.10
2022-10-29T19:07:28.041Z,4.03
2022-10-29T19:09:56.035Z,5.15
2022-10-29T19:12:23.901Z,4.35
2022-10-29T19:14:51.716Z,4.60
2022-10-29T19:17:20.968Z,4.55
2022-10-29T19:19:48.921Z,4.38
2022-10-29T19:22:16.898Z,4.80
2022-10-29T19:24:44.657Z,4.85
2022-10-29T19:27:12.426Z,4.50
2022-10-29T19:29:40.244Z,4.90
2022-10-29T19:32:08.052Z,5.00
2022-10-29T19:37:11.925Z,4.47
2022-10-29T19:39:39.744Z,5.00
2022-10-29T19:42:07.551Z,5.07
2022-10-29T19:44:35.152Z,4.88
2022-10-29T19:47:03.031Z,4.57
2022-10-29T19:49:30.891Z,6.57
2022-10-29T19:51:59.970Z,5.30
2022-10-29T19:54:27.698Z,5.72
2022-10-29T19:56:55.565Z,5.65
2022-10-29T19:59:23.316Z,5.38
2022-10-29T20:01:51.124Z,4.53
2022-10-29T20:04:19.070Z,5.07
2022-10-29T20:06:48.277Z,8.73
2022-10-29T20:09:17.488Z,6.75
2022-10-29T20:11:45.466Z,10.18
2022-10-29T20:14:13.165Z,5.47
2022-10-29T20:16:41.112Z,6.45
2022-10-29T20:19:08.939Z,6.43
2022-10-29T20:21:36.815Z,5.50
2022-10-29T20:24:04.950Z,6.55
2022-10-29T20:26:34.195Z,6.88
2022-10-29T20:29:02.022Z,4.85
2022-10-29T20:31:31.700Z,6.78
2022-10-29T20:34:02.083Z,6.05
2022-10-29T20:36:31.011Z,7.18
2022-10-29T20:38:59.304Z,6.40
2022-10-29T20:41:27.332Z,5.72
2022-10-29T20:43:57.240Z,5.50
2022-10-29T20:46:25.450Z,5.82
2022-10-29T20:48:53.378Z,5.70
2022-10-29T20:51:22.788Z,5.40
2022-10-29T20:53:50.706Z,6.50
2022-10-29T20:56:18.764Z,5.60
2022-10-29T20:58:46.539Z,5.97
2022-10-29T21:01:16.535Z,5.57
2022-10-29T21:03:45.040Z,5.72
2022-10-29T21:06:17.205Z,6.40
2022-10-29T21:08:45.486Z,5.47
2022-10-29T21:11:14.813Z,6.20
2022-10-29T21:13:42.732Z,5.20
2022-10-29T21:16:13.711Z,4.93
2022-10-29T21:18:43.529Z,5.82
2022-10-29T21:21:11.653Z,7.82
2022-10-29T21:23:40.082Z,5.00
2022-10-29T21:26:08.634Z,5.82
2022-10-29T21:28:36.680Z,5.68
2022-10-29T21:31:04.772Z,5.88
2022-10-29T21:33:32.821Z,6.00
2022-10-29T21:36:02.015Z,5.38
2022-10-29T21:38:30.451Z,5.40
2022-10-29T21:40:58.383Z,5.30
2022-10-29T21:43:26.267Z,5.05
2022-10-29T21:45:54.086Z,5.00
2022-10-29T21:48:21.896Z,7.53
2022-10-29T21:50:49.867Z,6.70
2022-10-29T21:53:19.026Z,5.40
2022-10-29T21:55:46.933Z,5.47
2022-10-29T21:58:14.801Z,5.53
2022-10-29T22:00:42.645Z,4.90
2022-10-29T22:03:10.457Z,6.65
2022-10-29T22:05:38.372Z,7.85
2022-10-29T22:08:06.272Z,5.20
2022-10-29T22:10:35.919Z,4.43
2022-10-29T22:13:03.635Z,5.25
2022-10-29T22:15:31.350Z,4.93
2022-10-29T22:17:59.156Z,4.35
2022-10-29T22:20:26.918Z,5.32
2022-10-29T22:22:54.808Z,4.78
2022-10-29T22:25:22.856Z,4.88
2022-10-29T22:27:52.100Z,4.43
2022-10-29T22:30:20.126Z,4.95
2022-10-29T22:32:47.994Z,4.30
2022-10-29T22:35:15.710Z,5.22
2022-10-29T22:37:43.570Z,4.47
2022-10-29T22:40:11.790Z,4.28
2022-10-29T22:42:39.650Z,4.70
2022-10-29T22:45:09.718Z,4.78
2022-10-29T22:47:37.479Z,4.38
2022-10-29T22:50:05.658Z,4.32
2022-10-29T22:52:33.716Z,4.68
2022-10-29T22:55:01.641Z,4.57
2022-10-29T22:57:29.659Z,4.82
2022-10-29T22:59:57.677Z,4.40
2022-10-29T23:02:26.961Z,4.20
2022-10-29T23:04:54.834Z,4.90
2022-10-29T23:07:22.749Z,4.70
2022-10-29T23:09:50.613Z,4.90
2022-10-29T23:12:18.485Z,4.80
2022-10-29T23:14:46.352Z,4.18
2022-10-29T23:17:20.344Z,4.30
2022-10-29T23:19:49.648Z,4.47
2022-10-29T23:22:19.163Z,4.25
2022-10-29T23:24:48.873Z,5.00
2022-10-29T23:27:17.973Z,4.72
2022-10-29T23:29:49.814Z,4.60
2022-10-29T23:32:17.738Z,4.53
2022-10-29T23:34:45.601Z,3.88
2022-10-29T23:37:14.879Z,4.85
2022-10-29T23:39:42.720Z,4.13
2022-10-29T23:42:10.439Z,4.30
2022-10-29T23:44:38.142Z,4.55
2022-10-29T23:47:05.933Z,4.30
2022-10-29T23:49:33.668Z,4.43
2022-10-29T23:52:01.404Z,3.88
2022-10-29T23:54:30.533Z,4.43
2022-10-29T23:56:58.337Z,3.78
2022-10-29T23:59:26.100Z,4.38
